Terminal Aerodrome Forecast
Issued by NWS

Home | Current Version | Previous Version | Text Only | Print | Product List | Glossary On
Versions: 1 2 3 4 5 6 7 8 9 10 11 12 13 14 15
000
FTUS43 KFGF 241121
TAFTVF
TAF
KTVF 241121Z 2412/2512 36007KT P6SM SCT250
     FM241900 34015G23KT P6SM SCT070
     FM250000 33010KT P6SM SCT080
     FM251100 28005KT P6SM BKN070=

USA.gov is the U.S. government's official web portal to all federal, state and local government web resources and services.